sensor_id;sensor_type;location;lat;lon;timestamp;P1;durP1;ratioP1;P2;durP2;ratioP2
37205;SDS011;23099;42.636;23.198;2023-02-28T00:00:08;27.08;;;14.15;;
37205;SDS011;23099;42.636;23.198;2023-02-28T00:02:36;29.38;;;14.60;;
37205;SDS011;23099;42.636;23.198;2023-02-28T00:05:03;26.27;;;13.05;;
37205;SDS011;23099;42.636;23.198;2023-02-28T00:07:31;25.50;;;14.02;;
37205;SDS011;23099;42.636;23.198;2023-02-28T00:09:58;31.08;;;13.70;;
37205;SDS011;23099;42.636;23.198;2023-02-28T00:12:25;24.88;;;13.07;;
37205;SDS011;23099;42.636;23.198;2023-02-28T00:14:53;27.20;;;14.13;;
37205;SDS011;23099;42.636;23.198;2023-02-28T00:17:20;28.83;;;14.55;;
37205;SDS011;23099;42.636;23.198;2023-02-28T00:19:47;27.85;;;14.27;;
37205;SDS011;23099;42.636;23.198;2023-02-28T00:22:14;27.67;;;13.63;;
37205;SDS011;23099;42.636;23.198;2023-02-28T00:24:41;27.50;;;13.48;;
37205;SDS011;23099;42.636;23.198;2023-02-28T00:27:08;26.25;;;12.73;;
37205;SDS011;23099;42.636;23.198;2023-02-28T00:29:35;23.50;;;11.70;;
37205;SDS011;23099;42.636;23.198;2023-02-28T00:32:03;25.13;;;13.07;;
37205;SDS011;23099;42.636;23.198;2023-02-28T00:34:31;26.45;;;13.23;;
37205;SDS011;23099;42.636;23.198;2023-02-28T00:37:03;26.95;;;13.07;;
37205;SDS011;23099;42.636;23.198;2023-02-28T00:39:31;78.25;;;17.73;;
37205;SDS011;23099;42.636;23.198;2023-02-28T00:41:57;236.52;;;24.35;;
37205;SDS011;23099;42.636;23.198;2023-02-28T00:44:24;366.95;;;27.98;;
37205;SDS011;23099;42.636;23.198;2023-02-28T00:46:51;395.05;;;31.52;;
37205;SDS011;23099;42.636;23.198;2023-02-28T00:49:20;358.10;;;28.58;;
37205;SDS011;23099;42.636;23.198;2023-02-28T00:51:47;70.53;;;18.10;;
37205;SDS011;23099;42.636;23.198;2023-02-28T00:54:14;29.30;;;14.65;;
37205;SDS011;23099;42.636;23.198;2023-02-28T00:56:41;32.15;;;15.35;;
37205;SDS011;23099;42.636;23.198;2023-02-28T00:59:08;35.00;;;15.77;;
37205;SDS011;23099;42.636;23.198;2023-02-28T01:01:34;33.42;;;14.90;;
37205;SDS011;23099;42.636;23.198;2023-02-28T01:04:01;26.77;;;12.60;;
37205;SDS011;23099;42.636;23.198;2023-02-28T01:06:29;22.92;;;11.60;;
37205;SDS011;23099;42.636;23.198;2023-02-28T01:08:56;23.63;;;11.38;;
37205;SDS011;23099;42.636;23.198;2023-02-28T01:11:23;22.88;;;9.85;;
37205;SDS011;23099;42.636;23.198;2023-02-28T01:13:50;20.27;;;10.05;;
37205;SDS011;23099;42.636;23.198;2023-02-28T01:16:17;22.63;;;10.60;;
37205;SDS011;23099;42.636;23.198;2023-02-28T01:18:44;21.15;;;10.38;;
37205;SDS011;23099;42.636;23.198;2023-02-28T01:21:12;25.45;;;11.50;;
37205;SDS011;23099;42.636;23.198;2023-02-28T01:23:41;41.38;;;13.57;;
37205;SDS011;23099;42.636;23.198;2023-02-28T01:28:36;32.72;;;13.95;;
37205;SDS011;23099;42.636;23.198;2023-02-28T01:31:03;39.40;;;14.95;;
37205;SDS011;23099;42.636;23.198;2023-02-28T01:33:30;48.78;;;19.88;;
37205;SDS011;23099;42.636;23.198;2023-02-28T01:35:57;153.20;;;19.35;;
37205;SDS011;23099;42.636;23.198;2023-02-28T01:38:25;87.82;;;16.05;;
37205;SDS011;23099;42.636;23.198;2023-02-28T01:40:53;141.93;;;17.75;;
37205;SDS011;23099;42.636;23.198;2023-02-28T01:43:21;110.40;;;18.48;;
37205;SDS011;23099;42.636;23.198;2023-02-28T01:45:49;130.00;;;17.63;;
37205;SDS011;23099;42.636;23.198;2023-02-28T01:48:16;135.88;;;18.60;;
37205;SDS011;23099;42.636;23.198;2023-02-28T01:50:44;120.03;;;18.08;;
37205;SDS011;23099;42.636;23.198;2023-02-28T01:53:14;413.35;;;26.08;;
37205;SDS011;23099;42.636;23.198;2023-02-28T01:55:45;184.52;;;21.45;;
37205;SDS011;23099;42.636;23.198;2023-02-28T01:58:15;394.65;;;27.58;;
37205;SDS011;23099;42.636;23.198;2023-02-28T02:00:42;174.40;;;20.05;;
37205;SDS011;23099;42.636;23.198;2023-02-28T02:03:09;391.25;;;27.65;;
37205;SDS011;23099;42.636;23.198;2023-02-28T02:05:40;147.27;;;20.13;;
37205;SDS011;23099;42.636;23.198;2023-02-28T02:08:13;417.10;;;28.25;;
37205;SDS011;23099;42.636;23.198;2023-02-28T02:10:44;466.30;;;29.35;;
37205;SDS011;23099;42.636;23.198;2023-02-28T02:13:20;716.67;;;74.13;;
37205;SDS011;23099;42.636;23.198;2023-02-28T02:16:02;572.50;;;38.05;;
37205;SDS011;23099;42.636;23.198;2023-02-28T02:18:38;739.37;;;42.83;;
37205;SDS011;23099;42.636;23.198;2023-02-28T02:21:34;567.45;;;31.80;;
37205;SDS011;23099;42.636;23.198;2023-02-28T02:24:38;491.27;;;31.77;;
37205;SDS011;23099;42.636;23.198;2023-02-28T02:27:20;490.77;;;29.67;;
37205;SDS011;23099;42.636;23.198;2023-02-28T02:35:48;100.43;;;20.80;;
37205;SDS011;23099;42.636;23.198;2023-02-28T02:38:24;339.60;;;25.92;;
37205;SDS011;23099;42.636;23.198;2023-02-28T02:40:59;481.77;;;27.63;;
37205;SDS011;23099;42.636;23.198;2023-02-28T02:43:33;509.95;;;27.70;;
37205;SDS011;23099;42.636;23.198;2023-02-28T02:46:04;574.10;;;30.25;;
37205;SDS011;23099;42.636;23.198;2023-02-28T02:48:36;209.45;;;13.20;;
37205;SDS011;23099;42.636;23.198;2023-02-28T02:51:09;58.08;;;8.50;;
37205;SDS011;23099;42.636;23.198;2023-02-28T02:53:40;49.70;;;8.95;;
37205;SDS011;23099;42.636;23.198;2023-02-28T02:56:10;106.30;;;10.55;;
37205;SDS011;23099;42.636;23.198;2023-02-28T02:58:38;92.18;;;9.43;;
37205;SDS011;23099;42.636;23.198;2023-02-28T03:01:08;69.07;;;9.65;;
37205;SDS011;23099;42.636;23.198;2023-02-28T03:03:39;142.38;;;10.63;;
37205;SDS011;23099;42.636;23.198;2023-02-28T03:06:07;77.78;;;9.80;;
37205;SDS011;23099;42.636;23.198;2023-02-28T03:08:35;63.80;;;11.05;;
37205;SDS011;23099;42.636;23.198;2023-02-28T03:11:05;119.82;;;11.15;;
37205;SDS011;23099;42.636;23.198;2023-02-28T03:13:41;70.15;;;9.00;;
37205;SDS011;23099;42.636;23.198;2023-02-28T03:16:21;90.53;;;10.70;;
37205;SDS011;23099;42.636;23.198;2023-02-28T03:22:04;205.55;;;14.38;;
37205;SDS011;23099;42.636;23.198;2023-02-28T03:24:46;117.25;;;13.10;;
37205;SDS011;23099;42.636;23.198;2023-02-28T03:27:17;231.15;;;14.52;;
37205;SDS011;23099;42.636;23.198;2023-02-28T03:29:50;194.95;;;14.38;;
37205;SDS011;23099;42.636;23.198;2023-02-28T03:32:26;126.82;;;13.13;;
37205;SDS011;23099;42.636;23.198;2023-02-28T03:35:00;216.82;;;16.08;;
37205;SDS011;23099;42.636;23.198;2023-02-28T03:37:34;115.47;;;10.95;;
37205;SDS011;23099;42.636;23.198;2023-02-28T03:40:03;181.48;;;12.40;;
37205;SDS011;23099;42.636;23.198;2023-02-28T03:42:35;111.88;;;24.48;;
37205;SDS011;23099;42.636;23.198;2023-02-28T03:45:04;180.40;;;11.98;;
37205;SDS011;23099;42.636;23.198;2023-02-28T03:47:38;181.13;;;11.10;;
37205;SDS011;23099;42.636;23.198;2023-02-28T03:50:10;99.03;;;11.48;;
37205;SDS011;23099;42.636;23.198;2023-02-28T03:52:47;221.32;;;29.60;;
37205;SDS011;23099;42.636;23.198;2023-02-28T03:55:17;246.07;;;16.85;;
37205;SDS011;23099;42.636;23.198;2023-02-28T03:57:49;196.48;;;16.30;;
37205;SDS011;23099;42.636;23.198;2023-02-28T04:00:25;96.32;;;11.35;;
37205;SDS011;23099;42.636;23.198;2023-02-28T04:02:56;236.98;;;16.13;;
37205;SDS011;23099;42.636;23.198;2023-02-28T04:05:23;196.60;;;16.63;;
37205;SDS011;23099;42.636;23.198;2023-02-28T04:07:52;284.92;;;23.08;;
37205;SDS011;23099;42.636;23.198;2023-02-28T04:10:19;225.77;;;18.02;;
37205;SDS011;23099;42.636;23.198;2023-02-28T04:12:46;461.42;;;31.85;;
37205;SDS011;23099;42.636;23.198;2023-02-28T04:15:13;368.92;;;23.88;;
37205;SDS011;23099;42.636;23.198;2023-02-28T04:17:39;301.55;;;24.70;;
37205;SDS011;23099;42.636;23.198;2023-02-28T04:20:06;383.38;;;28.00;;
37205;SDS011;23099;42.636;23.198;2023-02-28T04:22:35;236.48;;;22.38;;
37205;SDS011;23099;42.636;23.198;2023-02-28T04:25:05;437.10;;;30.63;;
37205;SDS011;23099;42.636;23.198;2023-02-28T04:27:32;386.52;;;31.10;;
37205;SDS011;23099;42.636;23.198;2023-02-28T04:29:59;369.58;;;28.25;;
37205;SDS011;23099;42.636;23.198;2023-02-28T04:32:25;412.45;;;26.08;;
37205;SDS011;23099;42.636;23.198;2023-02-28T04:34:52;337.80;;;29.02;;
37205;SDS011;23099;42.636;23.198;2023-02-28T04:37:19;252.73;;;27.23;;
37205;SDS011;23099;42.636;23.198;2023-02-28T04:39:46;338.67;;;24.92;;
37205;SDS011;23099;42.636;23.198;2023-02-28T04:42:14;165.05;;;22.08;;
37205;SDS011;23099;42.636;23.198;2023-02-28T04:47:07;416.90;;;29.27;;
37205;SDS011;23099;42.636;23.198;2023-02-28T04:49:34;576.35;;;36.80;;
37205;SDS011;23099;42.636;23.198;2023-02-28T04:52:01;370.50;;;29.40;;
37205;SDS011;23099;42.636;23.198;2023-02-28T04:54:28;397.50;;;34.70;;
37205;SDS011;23099;42.636;23.198;2023-02-28T04:56:54;313.90;;;34.28;;
37205;SDS011;23099;42.636;23.198;2023-02-28T04:59:23;633.80;;;42.30;;
37205;SDS011;23099;42.636;23.198;2023-02-28T05:01:50;605.20;;;41.92;;
37205;SDS011;23099;42.636;23.198;2023-02-28T05:04:17;611.63;;;44.08;;
37205;SDS011;23099;42.636;23.198;2023-02-28T05:06:44;407.05;;;39.55;;
37205;SDS011;23099;42.636;23.198;2023-02-28T05:09:10;350.75;;;29.95;;
37205;SDS011;23099;42.636;23.198;2023-02-28T05:11:37;446.60;;;32.58;;
37205;SDS011;23099;42.636;23.198;2023-02-28T05:14:05;500.77;;;34.85;;
37205;SDS011;23099;42.636;23.198;2023-02-28T05:19:01;491.42;;;34.95;;
37205;SDS011;23099;42.636;23.198;2023-02-28T05:21:28;472.38;;;35.78;;
37205;SDS011;23099;42.636;23.198;2023-02-28T05:23:57;416.35;;;33.50;;
37205;SDS011;23099;42.636;23.198;2023-02-28T05:26:25;300.27;;;28.30;;
37205;SDS011;23099;42.636;23.198;2023-02-28T05:28:53;300.80;;;26.20;;
37205;SDS011;23099;42.636;23.198;2023-02-28T05:31:20;589.13;;;32.42;;
37205;SDS011;23099;42.636;23.198;2023-02-28T05:33:48;607.58;;;36.13;;
37205;SDS011;23099;42.636;23.198;2023-02-28T05:36:15;655.17;;;80.18;;
37205;SDS011;23099;42.636;23.198;2023-02-28T05:38:42;462.55;;;36.05;;
37205;SDS011;23099;42.636;23.198;2023-02-28T05:41:09;360.55;;;34.22;;
37205;SDS011;23099;42.636;23.198;2023-02-28T05:43:37;401.92;;;27.55;;
37205;SDS011;23099;42.636;23.198;2023-02-28T05:46:04;330.15;;;31.88;;
37205;SDS011;23099;42.636;23.198;2023-02-28T05:48:31;663.45;;;63.58;;
37205;SDS011;23099;42.636;23.198;2023-02-28T05:51:00;598.15;;;38.78;;
37205;SDS011;23099;42.636;23.198;2023-02-28T05:53:27;577.63;;;100.22;;
37205;SDS011;23099;42.636;23.198;2023-02-28T05:55:54;321.67;;;26.95;;
37205;SDS011;23099;42.636;23.198;2023-02-28T05:58:21;319.58;;;31.23;;
37205;SDS011;23099;42.636;23.198;2023-02-28T06:00:48;537.58;;;32.25;;
37205;SDS011;23099;42.636;23.198;2023-02-28T06:03:15;366.65;;;28.00;;
37205;SDS011;23099;42.636;23.198;2023-02-28T06:05:41;185.60;;;22.33;;
37205;SDS011;23099;42.636;23.198;2023-02-28T06:08:09;390.45;;;30.75;;
37205;SDS011;23099;42.636;23.198;2023-02-28T06:10:36;456.42;;;33.58;;
37205;SDS011;23099;42.636;23.198;2023-02-28T06:13:03;570.00;;;34.10;;
37205;SDS011;23099;42.636;23.198;2023-02-28T06:15:32;551.38;;;36.70;;
37205;SDS011;23099;42.636;23.198;2023-02-28T06:17:59;588.65;;;39.45;;
37205;SDS011;23099;42.636;23.198;2023-02-28T06:20:27;262.27;;;26.35;;
37205;SDS011;23099;42.636;23.198;2023-02-28T06:22:54;516.20;;;36.47;;
37205;SDS011;23099;42.636;23.198;2023-02-28T06:25:25;669.00;;;38.60;;
37205;SDS011;23099;42.636;23.198;2023-02-28T06:27:52;274.98;;;30.05;;
37205;SDS011;23099;42.636;23.198;2023-02-28T06:30:20;450.15;;;33.15;;
37205;SDS011;23099;42.636;23.198;2023-02-28T06:32:49;512.63;;;32.95;;
37205;SDS011;23099;42.636;23.198;2023-02-28T06:35:17;372.98;;;30.60;;
37205;SDS011;23099;42.636;23.198;2023-02-28T06:37:43;490.23;;;32.90;;
37205;SDS011;23099;42.636;23.198;2023-02-28T06:40:10;507.75;;;32.38;;
37205;SDS011;23099;42.636;23.198;2023-02-28T06:42:39;416.03;;;28.73;;
37205;SDS011;23099;42.636;23.198;2023-02-28T06:45:06;258.08;;;23.33;;
37205;SDS011;23099;42.636;23.198;2023-02-28T06:47:34;372.70;;;25.67;;
37205;SDS011;23099;42.636;23.198;2023-02-28T06:50:01;164.05;;;19.70;;
37205;SDS011;23099;42.636;23.198;2023-02-28T06:54:56;283.33;;;26.60;;
37205;SDS011;23099;42.636;23.198;2023-02-28T06:57:27;200.15;;;31.70;;
37205;SDS011;23099;42.636;23.198;2023-02-28T06:59:57;406.50;;;29.27;;
37205;SDS011;23099;42.636;23.198;2023-02-28T07:02:24;297.13;;;28.23;;
37205;SDS011;23099;42.636;23.198;2023-02-28T07:04:51;391.33;;;30.10;;
37205;SDS011;23099;42.636;23.198;2023-02-28T07:07:17;317.60;;;27.40;;
37205;SDS011;23099;42.636;23.198;2023-02-28T07:09:44;228.70;;;25.65;;
37205;SDS011;23099;42.636;23.198;2023-02-28T07:12:11;425.40;;;31.45;;
37205;SDS011;23099;42.636;23.198;2023-02-28T07:14:37;256.73;;;25.92;;
37205;SDS011;23099;42.636;23.198;2023-02-28T07:17:05;359.77;;;31.75;;
37205;SDS011;23099;42.636;23.198;2023-02-28T07:19:33;247.35;;;27.55;;
37205;SDS011;23099;42.636;23.198;2023-02-28T07:22:00;730.00;;;41.72;;
37205;SDS011;23099;42.636;23.198;2023-02-28T07:24:28;294.00;;;30.95;;
37205;SDS011;23099;42.636;23.198;2023-02-28T07:26:54;677.72;;;40.05;;
37205;SDS011;23099;42.636;23.198;2023-02-28T07:29:21;441.75;;;36.72;;
37205;SDS011;23099;42.636;23.198;2023-02-28T07:31:48;789.20;;;45.05;;
37205;SDS011;23099;42.636;23.198;2023-02-28T07:34:17;300.40;;;32.78;;
37205;SDS011;23099;42.636;23.198;2023-02-28T07:36:43;253.70;;;33.67;;
37205;SDS011;23099;42.636;23.198;2023-02-28T07:39:10;444.70;;;38.53;;
37205;SDS011;23099;42.636;23.198;2023-02-28T07:41:37;773.17;;;46.63;;
37205;SDS011;23099;42.636;23.198;2023-02-28T07:44:08;704.53;;;49.00;;
37205;SDS011;23099;42.636;23.198;2023-02-28T07:46:35;640.67;;;44.28;;
37205;SDS011;23099;42.636;23.198;2023-02-28T07:49:02;426.25;;;38.67;;
37205;SDS011;23099;42.636;23.198;2023-02-28T07:51:30;351.17;;;39.53;;
37205;SDS011;23099;42.636;23.198;2023-02-28T07:53:57;763.42;;;50.63;;
37205;SDS011;23099;42.636;23.198;2023-02-28T07:56:24;477.58;;;38.55;;
37205;SDS011;23099;42.636;23.198;2023-02-28T07:58:51;340.13;;;37.28;;
37205;SDS011;23099;42.636;23.198;2023-02-28T08:01:17;713.25;;;60.13;;
37205;SDS011;23099;42.636;23.198;2023-02-28T08:03:44;777.78;;;53.05;;
37205;SDS011;23099;42.636;23.198;2023-02-28T08:06:15;213.07;;;33.75;;
37205;SDS011;23099;42.636;23.198;2023-02-28T08:08:44;309.42;;;34.83;;
37205;SDS011;23099;42.636;23.198;2023-02-28T08:11:11;520.60;;;40.42;;
37205;SDS011;23099;42.636;23.198;2023-02-28T08:13:38;438.92;;;37.03;;
37205;SDS011;23099;42.636;23.198;2023-02-28T08:16:05;638.92;;;43.67;;
37205;SDS011;23099;42.636;23.198;2023-02-28T08:18:32;302.77;;;35.03;;
37205;SDS011;23099;42.636;23.198;2023-02-28T08:20:59;182.98;;;29.85;;
37205;SDS011;23099;42.636;23.198;2023-02-28T08:23:31;106.40;;;24.42;;
37205;SDS011;23099;42.636;23.198;2023-02-28T08:25:59;92.70;;;23.55;;
37205;SDS011;23099;42.636;23.198;2023-02-28T08:28:26;79.05;;;23.27;;
37205;SDS011;23099;42.636;23.198;2023-02-28T08:30:53;108.03;;;24.08;;
37205;SDS011;23099;42.636;23.198;2023-02-28T08:33:20;76.60;;;26.20;;
37205;SDS011;23099;42.636;23.198;2023-02-28T08:35:47;141.90;;;29.13;;
37205;SDS011;23099;42.636;23.198;2023-02-28T08:38:14;100.28;;;28.13;;
37205;SDS011;23099;42.636;23.198;2023-02-28T08:40:41;71.50;;;27.73;;
37205;SDS011;23099;42.636;23.198;2023-02-28T08:43:09;60.55;;;24.67;;
37205;SDS011;23099;42.636;23.198;2023-02-28T08:45:35;59.83;;;24.08;;
37205;SDS011;23099;42.636;23.198;2023-02-28T08:48:02;69.18;;;25.38;;
37205;SDS011;23099;42.636;23.198;2023-02-28T08:50:29;59.55;;;22.83;;
37205;SDS011;23099;42.636;23.198;2023-02-28T08:52:56;132.77;;;29.05;;
37205;SDS011;23099;42.636;23.198;2023-02-28T08:55:23;86.40;;;29.85;;
37205;SDS011;23099;42.636;23.198;2023-02-28T08:57:50;126.90;;;40.95;;
37205;SDS011;23099;42.636;23.198;2023-02-28T09:00:19;134.60;;;37.97;;
37205;SDS011;23099;42.636;23.198;2023-02-28T09:02:47;138.73;;;34.95;;
37205;SDS011;23099;42.636;23.198;2023-02-28T09:05:13;108.30;;;35.05;;
37205;SDS011;23099;42.636;23.198;2023-02-28T09:07:40;124.68;;;34.28;;
37205;SDS011;23099;42.636;23.198;2023-02-28T09:10:07;153.57;;;36.13;;
37205;SDS011;23099;42.636;23.198;2023-02-28T09:12:34;193.07;;;37.08;;
37205;SDS011;23099;42.636;23.198;2023-02-28T09:15:01;210.55;;;39.90;;
37205;SDS011;23099;42.636;23.198;2023-02-28T09:17:30;130.30;;;35.97;;
37205;SDS011;23099;42.636;23.198;2023-02-28T09:19:57;183.07;;;35.15;;
37205;SDS011;23099;42.636;23.198;2023-02-28T09:22:24;234.45;;;39.97;;
37205;SDS011;23099;42.636;23.198;2023-02-28T09:24:50;149.50;;;36.92;;
37205;SDS011;23099;42.636;23.198;2023-02-28T09:27:17;356.05;;;37.25;;
37205;SDS011;23099;42.636;23.198;2023-02-28T09:29:44;183.35;;;37.38;;
37205;SDS011;23099;42.636;23.198;2023-02-28T09:32:10;103.47;;;34.35;;
37205;SDS011;23099;42.636;23.198;2023-02-28T09:34:39;205.52;;;36.00;;
37205;SDS011;23099;42.636;23.198;2023-02-28T09:37:05;268.20;;;36.10;;
37205;SDS011;23099;42.636;23.198;2023-02-28T09:39:32;211.23;;;36.08;;
37205;SDS011;23099;42.636;23.198;2023-02-28T09:41:59;117.88;;;35.30;;
37205;SDS011;23099;42.636;23.198;2023-02-28T09:44:30;148.32;;;34.60;;
37205;SDS011;23099;42.636;23.198;2023-02-28T09:47:01;135.90;;;35.42;;
37205;SDS011;23099;42.636;23.198;2023-02-28T09:49:38;78.45;;;34.03;;
37205;SDS011;23099;42.636;23.198;2023-02-28T09:52:12;126.65;;;36.20;;
37205;SDS011;23099;42.636;23.198;2023-02-28T09:54:41;80.72;;;35.67;;
37205;SDS011;23099;42.636;23.198;2023-02-28T09:57:11;84.22;;;37.78;;
37205;SDS011;23099;42.636;23.198;2023-02-28T09:59:49;109.07;;;38.03;;
37205;SDS011;23099;42.636;23.198;2023-02-28T10:02:38;78.63;;;36.90;;
37205;SDS011;23099;42.636;23.198;2023-02-28T10:05:16;76.30;;;34.97;;
37205;SDS011;23099;42.636;23.198;2023-02-28T10:07:49;92.65;;;35.75;;
37205;SDS011;23099;42.636;23.198;2023-02-28T10:10:25;81.00;;;36.15;;
37205;SDS011;23099;42.636;23.198;2023-02-28T10:12:56;77.25;;;35.92;;
37205;SDS011;23099;42.636;23.198;2023-02-28T10:15:27;75.28;;;34.85;;
37205;SDS011;23099;42.636;23.198;2023-02-28T10:17:57;96.03;;;37.10;;
37205;SDS011;23099;42.636;23.198;2023-02-28T10:20:28;89.18;;;36.50;;
37205;SDS011;23099;42.636;23.198;2023-02-28T10:23:02;88.03;;;36.92;;
37205;SDS011;23099;42.636;23.198;2023-02-28T10:25:36;96.78;;;41.38;;
37205;SDS011;23099;42.636;23.198;2023-02-28T10:28:08;96.93;;;41.17;;
37205;SDS011;23099;42.636;23.198;2023-02-28T10:30:38;92.22;;;39.72;;
37205;SDS011;23099;42.636;23.198;2023-02-28T10:33:08;86.10;;;39.33;;
37205;SDS011;23099;42.636;23.198;2023-02-28T10:35:45;86.05;;;36.45;;
37205;SDS011;23099;42.636;23.198;2023-02-28T10:38:14;80.55;;;34.58;;
37205;SDS011;23099;42.636;23.198;2023-02-28T10:40:43;70.75;;;33.72;;
37205;SDS011;23099;42.636;23.198;2023-02-28T10:43:18;77.20;;;34.08;;
37205;SDS011;23099;42.636;23.198;2023-02-28T10:45:52;68.47;;;32.75;;
37205;SDS011;23099;42.636;23.198;2023-02-28T10:48:30;68.90;;;32.42;;
37205;SDS011;23099;42.636;23.198;2023-02-28T10:51:00;68.15;;;30.58;;
37205;SDS011;23099;42.636;23.198;2023-02-28T10:53:31;67.43;;;30.40;;
37205;SDS011;23099;42.636;23.198;2023-02-28T10:56:00;65.60;;;30.15;;
37205;SDS011;23099;42.636;23.198;2023-02-28T10:58:28;66.45;;;30.50;;
37205;SDS011;23099;42.636;23.198;2023-02-28T11:00:58;64.95;;;31.17;;
37205;SDS011;23099;42.636;23.198;2023-02-28T11:03:30;63.92;;;30.60;;
37205;SDS011;23099;42.636;23.198;2023-02-28T11:05:59;83.97;;;37.67;;
37205;SDS011;23099;42.636;23.198;2023-02-28T11:08:33;68.13;;;31.50;;
37205;SDS011;23099;42.636;23.198;2023-02-28T11:11:01;62.70;;;27.73;;
37205;SDS011;23099;42.636;23.198;2023-02-28T11:13:32;64.05;;;27.33;;
37205;SDS011;23099;42.636;23.198;2023-02-28T11:16:02;56.70;;;24.88;;
37205;SDS011;23099;42.636;23.198;2023-02-28T11:18:33;50.58;;;22.50;;
37205;SDS011;23099;42.636;23.198;2023-02-28T11:21:08;52.05;;;21.83;;
37205;SDS011;23099;42.636;23.198;2023-02-28T11:23:42;43.22;;;17.58;;
37205;SDS011;23099;42.636;23.198;2023-02-28T11:26:09;40.90;;;16.95;;
37205;SDS011;23099;42.636;23.198;2023-02-28T11:28:37;36.20;;;15.32;;
37205;SDS011;23099;42.636;23.198;2023-02-28T11:31:09;37.70;;;15.23;;
37205;SDS011;23099;42.636;23.198;2023-02-28T11:33:45;32.20;;;14.13;;
37205;SDS011;23099;42.636;23.198;2023-02-28T11:36:18;37.35;;;13.10;;
37205;SDS011;23099;42.636;23.198;2023-02-28T11:38:49;31.33;;;13.88;;
37205;SDS011;23099;42.636;23.198;2023-02-28T11:41:27;37.13;;;14.48;;
37205;SDS011;23099;42.636;23.198;2023-02-28T11:44:07;38.13;;;15.20;;
37205;SDS011;23099;42.636;23.198;2023-02-28T11:46:44;32.65;;;13.75;;
37205;SDS011;23099;42.636;23.198;2023-02-28T11:49:30;33.63;;;12.50;;
37205;SDS011;23099;42.636;23.198;2023-02-28T11:52:04;27.92;;;12.20;;
37205;SDS011;23099;42.636;23.198;2023-02-28T11:54:44;33.47;;;12.82;;
37205;SDS011;23099;42.636;23.198;2023-02-28T11:57:30;33.63;;;12.65;;
37205;SDS011;23099;42.636;23.198;2023-02-28T12:02:35;32.47;;;12.80;;
37205;SDS011;23099;42.636;23.198;2023-02-28T12:05:21;30.83;;;12.90;;
37205;SDS011;23099;42.636;23.198;2023-02-28T12:07:59;33.03;;;12.35;;
37205;SDS011;23099;42.636;23.198;2023-02-28T12:10:34;32.85;;;13.10;;
37205;SDS011;23099;42.636;23.198;2023-02-28T12:13:12;30.92;;;12.77;;
37205;SDS011;23099;42.636;23.198;2023-02-28T12:15:51;29.95;;;12.73;;
37205;SDS011;23099;42.636;23.198;2023-02-28T12:18:38;28.50;;;12.23;;
37205;SDS011;23099;42.636;23.198;2023-02-28T12:21:20;28.98;;;12.25;;
37205;SDS011;23099;42.636;23.198;2023-02-28T12:26:47;27.13;;;12.48;;
37205;SDS011;23099;42.636;23.198;2023-02-28T12:29:19;26.40;;;11.68;;
37205;SDS011;23099;42.636;23.198;2023-02-28T12:31:49;25.23;;;11.00;;
37205;SDS011;23099;42.636;23.198;2023-02-28T12:34:20;26.67;;;12.18;;
37205;SDS011;23099;42.636;23.198;2023-02-28T12:36:50;32.80;;;11.50;;
37205;SDS011;23099;42.636;23.198;2023-02-28T12:39:23;31.40;;;11.25;;
37205;SDS011;23099;42.636;23.198;2023-02-28T12:41:53;30.08;;;11.77;;
37205;SDS011;23099;42.636;23.198;2023-02-28T12:44:23;27.75;;;11.13;;
37205;SDS011;23099;42.636;23.198;2023-02-28T12:46:55;32.22;;;12.32;;
37205;SDS011;23099;42.636;23.198;2023-02-28T12:49:28;31.00;;;12.23;;
37205;SDS011;23099;42.636;23.198;2023-02-28T12:51:57;31.65;;;11.23;;
37205;SDS011;23099;42.636;23.198;2023-02-28T12:54:28;27.88;;;12.52;;
37205;SDS011;23099;42.636;23.198;2023-02-28T12:57:02;25.27;;;11.90;;
37205;SDS011;23099;42.636;23.198;2023-02-28T12:59:39;34.15;;;12.13;;
37205;SDS011;23099;42.636;23.198;2023-02-28T13:02:19;28.23;;;11.70;;
37205;SDS011;23099;42.636;23.198;2023-02-28T13:07:56;26.90;;;12.50;;
37205;SDS011;23099;42.636;23.198;2023-02-28T13:10:40;32.78;;;13.18;;
37205;SDS011;23099;42.636;23.198;2023-02-28T13:13:13;32.70;;;13.23;;
37205;SDS011;23099;42.636;23.198;2023-02-28T13:15:49;35.40;;;13.23;;
37205;SDS011;23099;42.636;23.198;2023-02-28T13:18:29;30.95;;;12.98;;
37205;SDS011;23099;42.636;23.198;2023-02-28T13:20:59;31.25;;;14.25;;
37205;SDS011;23099;42.636;23.198;2023-02-28T13:29:33;28.10;;;11.63;;
37205;SDS011;23099;42.636;23.198;2023-02-28T13:35:14;38.53;;;16.60;;
37205;SDS011;23099;42.636;23.198;2023-02-28T13:38:13;28.50;;;11.95;;
37205;SDS011;23099;42.636;23.198;2023-02-28T13:40:43;30.90;;;12.57;;
37205;SDS011;23099;42.636;23.198;2023-02-28T13:43:10;31.38;;;11.75;;
37205;SDS011;23099;42.636;23.198;2023-02-28T13:45:38;30.30;;;10.60;;
37205;SDS011;23099;42.636;23.198;2023-02-28T13:48:15;30.30;;;11.38;;
37205;SDS011;23099;42.636;23.198;2023-02-28T13:50:43;30.50;;;10.82;;
37205;SDS011;23099;42.636;23.198;2023-02-28T13:53:29;24.90;;;10.95;;
37205;SDS011;23099;42.636;23.198;2023-02-28T13:56:07;27.23;;;10.68;;
37205;SDS011;23099;42.636;23.198;2023-02-28T13:58:48;28.23;;;10.77;;
37205;SDS011;23099;42.636;23.198;2023-02-28T14:01:35;28.83;;;10.48;;
37205;SDS011;23099;42.636;23.198;2023-02-28T14:07:16;29.58;;;11.55;;
37205;SDS011;23099;42.636;23.198;2023-02-28T14:09:47;28.90;;;11.60;;
37205;SDS011;23099;42.636;23.198;2023-02-28T14:15:27;26.13;;;11.25;;
37205;SDS011;23099;42.636;23.198;2023-02-28T14:18:05;25.63;;;10.23;;
37205;SDS011;23099;42.636;23.198;2023-02-28T14:20:40;25.50;;;10.35;;
37205;SDS011;23099;42.636;23.198;2023-02-28T14:23:10;31.30;;;10.80;;
37205;SDS011;23099;42.636;23.198;2023-02-28T14:25:43;25.85;;;10.38;;
37205;SDS011;23099;42.636;23.198;2023-02-28T14:28:19;29.23;;;11.70;;
37205;SDS011;23099;42.636;23.198;2023-02-28T14:30:53;26.70;;;11.00;;
37205;SDS011;23099;42.636;23.198;2023-02-28T14:33:31;27.90;;;11.50;;
37205;SDS011;23099;42.636;23.198;2023-02-28T14:36:08;31.48;;;10.85;;
37205;SDS011;23099;42.636;23.198;2023-02-28T14:38:41;40.65;;;16.25;;
37205;SDS011;23099;42.636;23.198;2023-02-28T14:41:15;29.55;;;11.00;;
37205;SDS011;23099;42.636;23.198;2023-02-28T14:43:50;30.80;;;10.35;;
37205;SDS011;23099;42.636;23.198;2023-02-28T14:46:18;25.85;;;10.02;;
37205;SDS011;23099;42.636;23.198;2023-02-28T14:48:47;30.07;;;11.27;;
37205;SDS011;23099;42.636;23.198;2023-02-28T14:51:19;35.88;;;11.30;;
37205;SDS011;23099;42.636;23.198;2023-02-28T14:53:48;24.70;;;10.25;;
37205;SDS011;23099;42.636;23.198;2023-02-28T14:56:19;25.55;;;9.77;;
37205;SDS011;23099;42.636;23.198;2023-02-28T14:58:52;25.23;;;9.45;;
37205;SDS011;23099;42.636;23.198;2023-02-28T15:01:20;26.25;;;9.35;;
37205;SDS011;23099;42.636;23.198;2023-02-28T15:03:49;32.25;;;9.52;;